19:08
Airports
History
Links
Donate
Help keep this website running!
PayPal
Bitcoin
This page is community maintained. The information is intended for PC simulator navigation or reference.
Always use approved charts for navigation.
SJZC
Destilaria Sao Luiz
Destilaria Sao Luiz (SJZC)
Maraial, Pernambuco, Brazil (55405)
4
Lat/Lng:8° 46' 44" S / 35° 47' 6" W
-8.778889 / -35.785
Elevation:1371'ft / 418mMSL
ID / ICAO:SJZC
Runways:1
Longest:08-26
Dirt 998m / 3,274ft
Nearby Weather19:00 GMT 2017-12-11
Nearby weather at SBMO, Zumbi Dos Palmares located 50.6 nautical miles from SJZC
Altimeter: 29.80
Visibility: 6.2 statute miles
Wind: 17 knots (from 090°)
Temp: 30°c / 86°f
Humidity: 62.3%

METAR: SBMO 111900Z 09017KT CAVOK 30/22 Q1009

(Powered by phpweather)
Runway 08 / 26
Dimensions:997.8 x 28m 3274' x 92'ft
Surface:Dirt
Runway 08 [A]Runway 26 [B]
Heading:057°TH 237°TH
Lat:
Lng:
8° 46' 52.81"S
35° 47' 19.79"W
8° 46' 35.19"S
35° 46' 52.21"W
User Notes and Comments
8° 46' 44" S / 35° 47' 6" W
Distance To
Airport ID:
Nearby Airports
4 Jose Mucio Monteiro 36.5 NM
SIRF ENE 73°
(C) Caruaru 37.7 NM
SNRU NNW 335°
4 Laginha 41.3 NM
SNWP SSW 206°
(U) Fazenda Lagoa do Cavalo 43.2 NM
SDWI NNE 13°
(C) Garanhuns 47.0 NM
SNGN W 265°
4 Uruba 50.2 NM
SNWZ SSW 193°
(C) Zumbi Dos Palmares 50.6 NM
SBMO ( WX ) S 180°
VFR Chart
Flight Planning at SkyVector.com